Time;durP1;ratioP1;P1;durP2;ratioP2;P2;SDS_P1;SDS_P2;PMS_P1;PMS_P2;Temp;Humidity;BMP_temperature;BMP_pressure;BME280_temperature;BME280_humidity;BME280_pressure;Samples;Min_cycle;Max_cycle;Signal;HPM_P1;HPM_P2
2022/04/11 00:01:55;;;;;;;27.92;25.92;;;3.20;87.90;;;;;;5072454;28;20560;-75
2022/04/11 00:04:22;;;;;;;27.08;25.48;;;3.20;87.90;;;;;;5072273;28;20226;-75
2022/04/11 00:06:50;;;;;;;28.42;26.50;;;3.20;88.10;;;;;;5072615;28;20201;-74
2022/04/11 00:09:17;;;;;;;27.52;25.73;;;3.20;88.00;;;;;;5071463;28;20526;-74
2022/04/11 00:11:44;;;;;;;28.45;26.40;;;3.30;87.80;;;;;;5072215;28;20197;-75
2022/04/11 00:14:11;;;;;;;28.60;26.50;;;3.30;87.40;;;;;;5072000;28;20226;-75
2022/04/11 00:16:38;;;;;;;28.42;26.45;;;3.30;87.30;;;;;;5071919;28;20632;-75
2022/04/11 00:19:05;;;;;;;27.60;25.75;;;3.30;87.50;;;;;;5071914;28;20227;-75
2022/04/11 00:21:32;;;;;;;28.10;26.30;;;3.20;87.30;;;;;;5071835;28;20199;-75
2022/04/11 00:24:00;;;;;;;27.55;25.70;;;3.20;87.40;;;;;;5071908;28;20760;-74
2022/04/11 00:26:27;;;;;;;28.60;26.58;;;3.20;87.70;;;;;;5071995;28;20203;-75
2022/04/11 00:28:54;;;;;;;28.05;26.20;;;3.10;87.80;;;;;;5071937;28;20287;-75
2022/04/11 00:31:21;;;;;;;28.27;26.42;;;3.10;87.90;;;;;;5071484;28;20658;-75
2022/04/11 00:33:48;;;;;;;28.17;26.23;;;3.10;88.00;;;;;;5072104;28;20220;-74
2022/04/11 00:36:15;;;;;;;28.25;26.17;;;3.10;88.10;;;;;;5071838;28;20205;-75
2022/04/11 00:38:42;;;;;;;29.45;27.38;;;3.10;88.30;;;;;;5071742;28;20307;-75
2022/04/11 00:41:11;;;;;;;28.75;26.85;;;3.20;88.10;;;;;;5070857;28;20565;-75
2022/04/11 00:43:39;;;;;;;28.65;26.75;;;3.20;88.10;;;;;;5071947;28;20656;-74
2022/04/11 00:46:07;;;;;;;29.85;27.35;;;3.30;88.20;;;;;;5071891;28;20652;-75
2022/04/11 00:48:35;;;;;;;28.90;27.08;;;3.30;87.80;;;;;;5071835;28;20195;-75
2022/04/11 00:51:04;;;;;;;30.30;27.75;;;3.40;87.50;;;;;;5071199;28;20700;-75
2022/04/11 00:53:33;;;;;;;27.70;26.00;;;3.40;87.50;;;;;;5071776;28;20220;-75
2022/04/11 00:56:01;;;;;;;29.58;27.58;;;3.40;87.60;;;;;;5071768;28;20206;-75
2022/04/11 00:58:31;;;;;;;28.13;26.23;;;3.40;87.40;;;;;;5071702;28;20216;-75
2022/04/11 01:00:58;;;;;;;29.45;27.40;;;3.40;87.30;;;;;;5071093;28;20672;-75
2022/04/11 01:03:25;;;;;;;28.15;26.35;;;3.40;87.20;;;;;;5071646;28;20227;-75
2022/04/11 01:05:52;;;;;;;28.88;26.88;;;3.40;88.80;;;;;;5071571;28;20683;-75
2022/04/11 01:08:19;;;;;;;29.60;27.50;;;3.30;89.80;;;;;;5071395;28;20196;-75
2022/04/11 01:10:47;;;;;;;28.27;26.48;;;3.30;89.00;;;;;;5070776;28;20205;-75
2022/04/11 01:13:14;;;;;;;29.13;27.02;;;3.30;88.50;;;;;;5071596;28;20255;-74
2022/04/11 01:15:52;;;;;;;29.70;27.70;;;3.30;88.30;;;;;;5071396;28;20200;-75
2022/04/11 01:18:19;;;;;;;28.48;26.27;;;3.30;88.10;;;;;;5071320;28;20218;-75
2022/04/11 01:20:46;;;;;;;29.38;27.38;;;3.40;87.80;;;;;;5070832;28;20243;-75
2022/04/11 01:23:14;;;;;;;29.15;27.10;;;3.40;87.50;;;;;;5071444;28;20315;-75
2022/04/11 01:25:41;;;;;;;28.05;26.15;;;3.40;87.30;;;;;;5071549;28;20229;-75
2022/04/11 01:28:08;;;;;;;29.25;27.08;;;3.40;88.70;;;;;;5071560;28;20196;-75
2022/04/11 01:30:35;;;;;;;29.05;26.92;;;3.30;88.80;;;;;;5070840;28;20204;-75
2022/04/11 01:33:14;;;;;;;29.80;27.67;;;3.30;88.40;;;;;;5071106;28;20218;-75
2022/04/11 01:35:41;;;;;;;30.08;28.13;;;3.30;87.90;;;;;;5071359;28;20685;-75
2022/04/11 01:38:07;;;;;;;29.27;27.23;;;3.30;88.40;;;;;;5071261;28;20209;-75
2022/04/11 01:40:36;;;;;;;28.77;26.77;;;3.30;88.40;;;;;;5070868;28;20197;-75
2022/04/11 01:43:03;;;;;;;29.45;27.42;;;3.30;88.30;;;;;;5071379;28;20303;-75
2022/04/11 01:45:30;;;;;;;29.48;27.35;;;3.30;88.30;;;;;;5071406;28;20199;-75
2022/04/11 01:47:57;;;;;;;30.20;28.10;;;3.40;89.00;;;;;;5071167;28;20205;-75
2022/04/11 01:50:23;;;;;;;30.20;28.17;;;3.40;88.80;;;;;;5070809;28;20209;-74
2022/04/11 01:52:50;;;;;;;30.00;28.05;;;3.40;88.30;;;;;;5071115;28;20800;-74
2022/04/11 01:55:17;;;;;;;29.20;27.20;;;3.40;88.40;;;;;;5074861;28;20284;-74
2022/04/11 01:57:45;;;;;;;30.20;28.33;;;3.40;87.80;;;;;;5074726;28;20283;-74
2022/04/11 02:00:13;;;;;;;28.20;26.30;;;3.40;87.50;;;;;;5074198;28;20303;-74
2022/04/11 02:02:40;;;;;;;28.05;26.45;;;3.40;87.40;;;;;;5074597;28;20787;-75
2022/04/11 02:05:08;;;;;;;28.85;26.95;;;3.50;87.10;;;;;;5074495;28;20201;-74
2022/04/11 02:07:34;;;;;;;28.67;26.52;;;3.40;87.00;;;;;;5074508;28;20204;-74
2022/04/11 02:10:03;;;;;;;29.30;27.20;;;3.40;86.90;;;;;;5073693;28;20199;-75
2022/04/11 02:12:30;;;;;;;28.70;26.73;;;3.40;86.90;;;;;;5074410;28;20219;-74
2022/04/11 02:14:58;;;;;;;30.30;28.25;;;3.40;86.80;;;;;;5074132;28;20202;-74
2022/04/11 02:17:25;;;;;;;29.63;27.63;;;3.30;87.10;;;;;;5074283;28;20245;-74
2022/04/11 02:19:52;;;;;;;29.63;27.77;;;3.30;86.90;;;;;;5073828;28;20224;-75
2022/04/11 02:22:19;;;;;;;31.73;29.38;;;3.30;87.00;;;;;;5074324;28;20321;-74
2022/04/11 02:24:46;;;;;;;29.52;27.55;;;3.30;87.30;;;;;;5074370;28;20202;-74
2022/04/11 02:27:14;;;;;;;29.42;27.60;;;3.30;87.20;;;;;;5074113;28;20205;-74
2022/04/11 02:29:41;;;;;;;32.22;30.10;;;3.30;87.20;;;;;;5073629;28;20189;-74
2022/04/11 02:32:09;;;;;;;29.70;27.65;;;3.30;87.30;;;;;;5074195;28;20287;-74
2022/04/11 02:34:36;;;;;;;29.08;27.23;;;3.30;87.30;;;;;;5074063;28;20700;-75
2022/04/11 02:37:03;;;;;;;30.92;28.98;;;3.30;87.20;;;;;;5074106;28;20294;-74
2022/04/11 02:39:30;;;;;;;29.30;27.30;;;3.30;87.20;;;;;;5073373;28;20231;-74
2022/04/11 02:41:58;;;;;;;30.50;28.23;;;3.40;87.10;;;;;;5073717;28;20200;-74
2022/04/11 02:44:25;;;;;;;28.83;26.95;;;3.40;87.00;;;;;;5073884;28;20216;-74
2022/04/11 02:46:51;;;;;;;30.15;28.10;;;3.40;86.80;;;;;;5073893;28;20197;-74
2022/04/11 02:49:20;;;;;;;29.20;27.30;;;3.40;86.80;;;;;;5073251;28;20203;-74
2022/04/11 02:51:46;;;;;;;31.60;29.60;;;3.40;86.80;;;;;;5073652;28;20207;-74
2022/04/11 02:54:14;;;;;;;30.15;28.00;;;3.40;86.90;;;;;;5073700;28;20220;-75
2022/04/11 02:56:40;;;;;;;29.08;27.17;;;3.40;87.00;;;;;;5073673;28;20200;-74
2022/04/11 02:59:07;;;;;;;31.85;29.58;;;3.40;87.00;;;;;;5073453;28;20705;-74
2022/04/11 03:01:34;;;;;;;31.02;28.95;;;3.40;86.90;;;;;;5073337;28;20196;-74
2022/04/11 03:04:01;;;;;;;31.55;29.48;;;3.40;86.80;;;;;;5073174;28;20303;-75
2022/04/11 03:06:29;;;;;;;31.67;29.58;;;3.40;87.00;;;;;;5073565;28;20209;-74
2022/04/11 03:08:56;;;;;;;30.70;28.40;;;3.50;86.70;;;;;;5073276;28;20192;-75
2022/04/11 03:11:23;;;;;;;30.40;28.30;;;3.50;86.70;;;;;;5072142;28;20766;-75
2022/04/11 03:13:50;;;;;;;31.40;29.20;;;3.50;86.60;;;;;;5073313;28;20220;-75
2022/04/11 03:16:16;;;;;;;30.65;28.77;;;3.50;86.60;;;;;;5073018;28;20227;-75
2022/04/11 03:18:43;;;;;;;30.80;28.77;;;3.50;86.60;;;;;;5073111;28;20305;-75
2022/04/11 03:21:10;;;;;;;29.20;27.40;;;3.50;86.60;;;;;;5072587;28;20193;-75
2022/04/11 03:23:39;;;;;;;29.08;27.27;;;3.50;86.40;;;;;;5072919;28;20213;-75
2022/04/11 03:26:05;;;;;;;29.35;27.23;;;3.50;86.30;;;;;;5073010;28;20300;-75
2022/04/11 03:28:32;;;;;;;30.95;28.85;;;3.50;86.40;;;;;;5072743;28;20230;-75
2022/04/11 03:31:00;;;;;;;32.75;30.55;;;3.50;86.30;;;;;;5072416;28;20661;-75
2022/04/11 03:33:27;;;;;;;31.52;29.33;;;3.50;86.60;;;;;;5072893;28;20216;-75
2022/04/11 03:35:54;;;;;;;29.85;27.95;;;3.50;86.70;;;;;;5072483;28;20211;-75
2022/04/11 03:38:21;;;;;;;28.90;26.92;;;3.50;86.60;;;;;;5072683;28;20211;-75
2022/04/11 03:40:49;;;;;;;28.88;27.08;;;3.50;87.70;;;;;;5072253;28;20581;-75
2022/04/11 03:43:16;;;;;;;30.73;28.70;;;3.50;87.40;;;;;;5072753;28;20240;-75
2022/04/11 03:45:43;;;;;;;32.97;30.67;;;3.50;88.40;;;;;;5072726;28;20312;-74
2022/04/11 03:48:10;;;;;;;33.88;31.48;;;3.50;87.50;;;;;;5072549;28;20283;-74
2022/04/11 03:50:37;;;;;;;32.00;29.85;;;3.40;87.60;;;;;;5072076;28;20197;-75
2022/04/11 03:53:04;;;;;;;30.98;28.98;;;3.40;87.50;;;;;;5072457;28;20218;-75
2022/04/11 03:55:31;;;;;;;30.30;28.05;;;3.50;87.20;;;;;;5072495;28;20194;-74
2022/04/11 03:57:59;;;;;;;30.17;28.27;;;3.40;87.00;;;;;;5072333;28;20198;-75
2022/04/11 04:00:26;;;;;;;32.25;29.75;;;3.50;86.90;;;;;;5071770;28;20216;-75
2022/04/11 04:02:53;;;;;;;30.02;27.77;;;3.50;86.60;;;;;;5072241;28;20224;-75
2022/04/11 04:05:20;;;;;;;31.67;29.65;;;3.50;86.50;;;;;;5072160;28;20197;-75
2022/04/11 04:07:47;;;;;;;30.80;28.58;;;3.50;86.40;;;;;;5072375;28;20207;-74
2022/04/11 04:10:14;;;;;;;31.45;29.35;;;3.60;86.10;;;;;;5071118;28;20288;-74
2022/04/11 04:12:41;;;;;;;29.77;27.55;;;3.50;85.80;;;;;;5072335;28;20251;-74
2022/04/11 04:15:10;;;;;;;28.67;26.77;;;3.40;86.40;;;;;;5072049;28;20254;-74
2022/04/11 04:17:36;;;;;;;30.98;28.98;;;3.30;86.80;;;;;;5071614;28;20201;-74
2022/04/11 04:20:04;;;;;;;31.50;28.90;;;3.30;87.10;;;;;;5071404;28;20591;-74
2022/04/11 04:22:31;;;;;;;30.05;27.88;;;3.30;87.20;;;;;;5072092;28;20307;-75
2022/04/11 04:24:58;;;;;;;31.50;29.38;;;3.30;87.20;;;;;;5072274;28;20191;-75
2022/04/11 04:27:25;;;;;;;31.85;29.52;;;3.30;87.10;;;;;;5072248;28;20223;-75
2022/04/11 04:29:51;;;;;;;32.75;30.38;;;3.40;86.80;;;;;;5071456;28;20295;-75
2022/04/11 04:32:20;;;;;;;32.40;30.10;;;3.30;87.60;;;;;;5071784;28;20338;-74
2022/04/11 04:34:47;;;;;;;33.67;31.48;;;3.30;87.70;;;;;;5071873;28;20574;-75
2022/04/11 04:37:14;;;;;;;30.00;27.90;;;3.20;87.90;;;;;;5072004;28;20213;-74
2022/04/11 04:39:41;;;;;;;29.85;28.05;;;3.20;87.60;;;;;;5071159;28;20222;-74
2022/04/11 04:42:08;;;;;;;29.80;27.83;;;3.20;87.50;;;;;;5071907;28;20200;-74
2022/04/11 04:44:39;;;;;;;32.15;29.85;;;3.20;87.30;;;;;;5071816;28;20203;-75
2022/04/11 04:47:07;;;;;;;30.27;27.88;;;3.10;87.40;;;;;;5071949;28;20233;-74
2022/04/11 04:49:35;;;;;;;28.60;26.70;;;3.10;87.60;;;;;;5071299;28;20200;-75
2022/04/11 04:52:03;;;;;;;29.85;27.95;;;3.10;87.60;;;;;;5072011;28;20716;-75
2022/04/11 04:54:30;;;;;;;29.73;27.80;;;3.10;87.60;;;;;;5071687;28;20216;-74
2022/04/11 04:56:56;;;;;;;30.27;28.17;;;3.10;87.40;;;;;;5071709;28;20206;-74
2022/04/11 04:59:23;;;;;;;32.88;30.55;;;3.10;87.20;;;;;;5071077;28;20250;-75
2022/04/11 05:01:50;;;;;;;31.75;29.65;;;3.10;87.30;;;;;;5071848;28;20279;-74
2022/04/11 05:04:17;;;;;;;31.75;29.60;;;3.00;87.50;;;;;;5071525;28;20705;-75
2022/04/11 05:06:45;;;;;;;31.17;28.70;;;3.10;87.40;;;;;;5071661;28;20657;-75
2022/04/11 05:09:12;;;;;;;32.58;30.15;;;3.10;87.40;;;;;;5071010;28;20200;-75
2022/04/11 05:11:39;;;;;;;31.67;29.48;;;3.00;87.50;;;;;;5071422;28;20211;-75
2022/04/11 05:14:06;;;;;;;32.35;29.80;;;3.00;87.60;;;;;;5071994;28;20262;-74
2022/04/11 05:16:33;;;;;;;32.40;30.08;;;3.00;87.70;;;;;;5071370;28;20205;-75
2022/04/11 05:19:00;;;;;;;31.13;28.95;;;3.10;87.70;;;;;;5071337;28;20654;-74
2022/04/11 05:21:27;;;;;;;31.63;29.38;;;3.10;87.50;;;;;;5071316;28;20235;-75
2022/04/11 05:23:55;;;;;;;30.90;28.85;;;3.20;87.20;;;;;;5071497;28;20216;-75
2022/04/11 05:26:22;;;;;;;30.60;28.48;;;3.10;87.20;;;;;;5071422;28;20283;-75
2022/04/11 05:28:49;;;;;;;31.60;29.55;;;3.10;87.30;;;;;;5074403;28;20226;-75
2022/04/11 05:31:16;;;;;;;32.28;29.85;;;3.30;87.00;;;;;;5074846;28;20192;-74
2022/04/11 05:33:43;;;;;;;32.88;30.55;;;3.30;86.70;;;;;;5075403;28;20212;-74
2022/04/11 05:36:10;;;;;;;30.23;27.92;;;3.40;86.60;;;;;;5075349;28;20227;-74
2022/04/11 05:38:38;;;;;;;30.70;28.50;;;3.40;86.10;;;;;;5075010;28;20665;-74
2022/04/11 05:41:06;;;;;;;33.28;30.98;;;3.50;86.10;;;;;;5074551;28;20303;-75
2022/04/11 05:43:33;;;;;;;31.92;29.73;;;3.60;85.90;;;;;;5075205;28;20226;-75
2022/04/11 05:46:01;;;;;;;34.45;31.38;;;3.70;85.40;;;;;;5075144;28;20205;-75
2022/04/11 05:48:30;;;;;;;32.70;30.10;;;3.80;85.20;;;;;;5074925;28;20605;-75
2022/04/11 05:50:59;;;;;;;32.05;29.90;;;3.90;84.70;;;;;;5074488;28;20279;-75
2022/04/11 05:53:26;;;;;;;32.45;30.15;;;4.00;84.50;;;;;;5074980;28;20224;-75
2022/04/11 05:55:53;;;;;;;36.35;32.80;;;4.10;84.00;;;;;;5074909;28;20212;-75
2022/04/11 05:58:21;;;;;;;33.10;30.70;;;4.10;83.60;;;;;;5074529;28;20206;-75
2022/04/11 06:00:48;;;;;;;31.60;29.40;;;4.20;83.50;;;;;;5074015;28;20701;-75
2022/04/11 06:03:15;;;;;;;34.60;32.13;;;4.20;83.30;;;;;;5074466;28;20303;-74
2022/04/11 06:05:42;;;;;;;32.47;30.38;;;4.20;83.30;;;;;;5074566;28;20200;-75
2022/04/11 06:08:08;;;;;;;30.77;28.48;;;4.40;83.20;;;;;;5074503;28;20287;-75
2022/04/11 06:10:36;;;;;;;34.13;31.10;;;4.50;83.00;;;;;;5073478;28;20197;-75
2022/04/11 06:13:03;;;;;;;32.92;30.70;;;4.60;82.60;;;;;;5074295;28;20255;-75
2022/04/11 06:15:32;;;;;;;33.10;30.50;;;4.60;82.70;;;;;;5074292;28;20198;-75
2022/04/11 06:17:59;;;;;;;32.80;30.40;;;4.70;82.60;;;;;;5074310;28;20293;-75
2022/04/11 06:20:25;;;;;;;32.72;30.38;;;4.80;81.80;;;;;;5073761;28;20249;-75
2022/04/11 06:22:52;;;;;;;31.95;29.70;;;4.90;81.60;;;;;;5074218;28;20224;-75
2022/04/11 06:25:19;;;;;;;33.15;30.50;;;5.00;80.80;;;;;;5074339;28;20202;-75
2022/04/11 06:27:46;;;;;;;31.30;29.13;;;5.10;80.50;;;;;;5074261;28;20285;-75
2022/04/11 06:30:13;;;;;;;31.75;29.35;;;5.10;80.00;;;;;;5073667;28;20663;-75
2022/04/11 06:32:42;;;;;;;33.20;31.08;;;5.20;79.70;;;;;;5073994;28;20560;-75
2022/04/11 06:35:10;;;;;;;33.45;31.15;;;5.30;79.50;;;;;;5073983;28;20215;-75
2022/04/11 06:37:37;;;;;;;33.45;31.05;;;5.50;79.30;;;;;;5074119;28;20233;-75
2022/04/11 06:40:04;;;;;;;33.65;31.08;;;5.50;79.20;;;;;;5072955;28;20218;-75
2022/04/11 06:42:31;;;;;;;33.95;31.67;;;5.60;78.20;;;;;;5073929;28;20222;-75
2022/04/11 06:44:58;;;;;;;34.45;31.75;;;5.70;78.20;;;;;;5073847;28;20244;-75
2022/04/11 06:47:25;;;;;;;32.38;30.27;;;5.80;77.90;;;;;;5073940;28;20199;-75
2022/04/11 06:49:53;;;;;;;35.08;32.22;;;5.90;77.20;;;;;;5073375;28;20226;-75
2022/04/11 06:52:20;;;;;;;33.00;30.75;;;5.90;76.90;;;;;;5074370;28;20202;-75
2022/04/11 06:54:47;;;;;;;32.90;30.80;;;5.90;76.40;;;;;;5074381;28;20209;-75
2022/04/11 06:57:14;;;;;;;33.38;31.02;;;6.00;76.40;;;;;;5074707;28;20285;-75
2022/04/11 06:59:41;;;;;;;33.40;31.20;;;6.20;76.00;;;;;;5074691;28;20202;-74
2022/04/11 07:02:08;;;;;;;31.13;29.00;;;6.30;75.40;;;;;;5074255;28;20277;-72
2022/04/11 07:04:35;;;;;;;31.88;29.60;;;6.50;75.10;;;;;;5073726;28;20203;-72
2022/04/11 07:07:03;;;;;;;34.85;32.10;;;6.70;74.10;;;;;;5073496;28;20214;-72
2022/04/11 07:09:31;;;;;;;32.13;30.02;;;6.90;73.30;;;;;;5072412;28;20563;-72
2022/04/11 07:11:58;;;;;;;32.33;30.10;;;6.90;73.30;;;;;;5073484;28;20210;-73
2022/04/11 07:14:25;;;;;;;33.10;30.80;;;7.10;72.80;;;;;;5073318;28;20219;-72
2022/04/11 07:16:52;;;;;;;33.45;31.17;;;7.20;72.30;;;;;;5072900;28;20218;-72
2022/04/11 07:19:20;;;;;;;35.83;33.38;;;7.40;71.50;;;;;;5072461;28;20239;-72
2022/04/11 07:21:47;;;;;;;32.63;30.38;;;7.50;70.50;;;;;;5073184;28;20220;-72
2022/04/11 07:24:15;;;;;;;33.38;31.08;;;7.60;70.30;;;;;;5073238;28;20222;-72
2022/04/11 07:26:42;;;;;;;34.58;32.55;;;7.70;69.40;;;;;;5073163;28;20284;-75
2022/04/11 07:29:10;;;;;;;34.80;32.28;;;7.80;69.20;;;;;;5072290;28;20232;-75
2022/04/11 07:31:37;;;;;;;33.38;30.70;;;8.00;68.70;;;;;;5072862;28;20192;-75
2022/04/11 07:34:03;;;;;;;30.75;28.55;;;8.10;68.50;;;;;;5072843;28;20685;-75
2022/04/11 07:36:30;;;;;;;34.13;31.83;;;8.20;67.20;;;;;;5072915;28;20196;-75
2022/04/11 07:38:58;;;;;;;33.83;31.40;;;8.30;67.40;;;;;;5072764;28;20204;-75
2022/04/11 07:41:28;;;;;;;34.17;31.90;;;8.50;66.50;;;;;;5072151;28;20657;-75
2022/04/11 07:43:57;;;;;;;29.77;27.63;;;8.50;66.00;;;;;;5072566;28;20285;-75
2022/04/11 07:46:23;;;;;;;32.85;30.75;;;8.50;65.90;;;;;;5072636;28;20204;-75
2022/04/11 07:48:51;;;;;;;30.27;28.27;;;8.60;65.50;;;;;;5072482;28;20303;-75
2022/04/11 07:51:17;;;;;;;31.80;29.70;;;8.70;65.40;;;;;;5071212;28;20196;-75
2022/04/11 07:53:44;;;;;;;28.45;26.45;;;8.80;65.20;;;;;;5072581;28;20314;-75
2022/04/11 07:56:11;;;;;;;30.17;28.27;;;9.00;64.30;;;;;;5072435;28;20246;-75
2022/04/11 07:58:40;;;;;;;28.15;26.35;;;9.10;63.60;;;;;;5072369;28;20206;-75
2022/04/11 08:01:06;;;;;;;28.02;26.15;;;9.20;63.50;;;;;;5072033;28;20353;-75
2022/04/11 08:03:33;;;;;;;32.33;30.63;;;9.30;63.00;;;;;;5072330;28;20311;-75
2022/04/11 08:06:00;;;;;;;31.27;29.45;;;9.40;62.50;;;;;;5072249;28;20632;-75
2022/04/11 08:08:27;;;;;;;28.90;27.05;;;9.60;61.50;;;;;;5072212;28;20283;-75
2022/04/11 08:10:56;;;;;;;29.58;27.88;;;9.70;61.40;;;;;;5071095;28;20196;-75
2022/04/11 08:13:22;;;;;;;28.77;26.95;;;9.90;60.00;;;;;;5072137;28;20845;-75
2022/04/11 08:15:51;;;;;;;28.83;26.90;;;10.00;59.80;;;;;;5071972;28;20753;-75
2022/04/11 08:18:17;;;;;;;27.33;25.42;;;10.20;59.20;;;;;;5072237;28;20201;-75
2022/04/11 08:20:44;;;;;;;27.75;25.98;;;10.30;59.00;;;;;;5071623;28;20227;-75
2022/04/11 08:23:11;;;;;;;27.80;25.90;;;10.40;58.80;;;;;;5072213;28;20220;-75
2022/04/11 08:25:38;;;;;;;27.00;25.40;;;10.50;58.60;;;;;;5072036;28;20565;-75
2022/04/11 08:28:05;;;;;;;27.85;26.05;;;10.60;58.10;;;;;;5071991;28;20486;-75
2022/04/11 08:30:32;;;;;;;27.42;25.73;;;10.60;57.80;;;;;;5071587;28;20277;-75
2022/04/11 08:33:00;;;;;;;29.67;27.77;;;10.80;57.50;;;;;;5071930;28;20305;-75
2022/04/11 08:35:27;;;;;;;29.13;27.43;;;10.70;57.50;;;;;;5071909;28;20547;-75
2022/04/11 08:37:54;;;;;;;28.10;26.33;;;10.80;57.40;;;;;;5071771;28;20545;-75
2022/04/11 08:40:21;;;;;;;30.83;29.03;;;10.90;57.10;;;;;;5071260;28;20509;-75
2022/04/11 08:42:49;;;;;;;28.00;26.10;;;11.00;57.20;;;;;;5071800;28;20578;-75
2022/04/11 08:45:18;;;;;;;28.30;26.50;;;11.20;56.80;;;;;;5071909;28;20451;-75
2022/04/11 08:47:45;;;;;;;28.10;26.40;;;11.40;56.40;;;;;;5072062;28;20450;-75
2022/04/11 08:50:14;;;;;;;28.83;27.23;;;11.40;55.50;;;;;;5071384;28;20542;-76
2022/04/11 08:52:41;;;;;;;27.17;25.57;;;11.30;55.80;;;;;;5071791;28;20508;-75
2022/04/11 08:55:10;;;;;;;28.33;26.53;;;11.40;55.90;;;;;;5071834;28;20458;-75
2022/04/11 08:57:37;;;;;;;27.67;25.93;;;11.50;55.40;;;;;;5071863;28;20473;-75
2022/04/11 09:00:06;;;;;;;29.10;27.23;;;11.60;55.40;;;;;;5071115;28;20450;-75
2022/04/11 09:02:34;;;;;;;28.53;26.63;;;11.80;54.70;;;;;;5072952;28;20466;-75
2022/04/11 09:05:02;;;;;;;30.00;28.30;;;11.80;54.90;;;;;;5075622;28;20800;-75
2022/04/11 09:07:45;;;;;;;28.90;27.20;;;11.90;54.70;;;;;;5075738;28;20450;-76
2022/04/11 09:10:12;;;;;;;27.73;26.07;;;11.90;53.90;;;;;;5074750;28;20450;-75
2022/04/11 09:12:47;;;;;;;29.47;27.60;;;11.90;54.20;;;;;;5075672;28;20932;-75
2022/04/11 09:15:14;;;;;;;27.83;25.97;;;12.10;54.50;;;;;;5075340;28;20974;-75
2022/04/11 09:17:42;;;;;;;29.20;27.40;;;12.30;53.70;;;;;;5075450;28;20854;-75
2022/04/11 09:20:11;;;;;;;29.20;27.50;;;12.40;53.30;;;;;;5074894;28;20962;-75
2022/04/11 09:22:40;;;;;;;27.20;25.40;;;12.40;53.30;;;;;;5075298;28;20467;-75
2022/04/11 09:25:11;;;;;;;28.77;26.80;;;12.50;53.70;;;;;;5075504;28;20533;-76
2022/04/11 09:27:39;;;;;;;27.80;26.00;;;12.60;53.40;;;;;;5075226;28;20457;-75
2022/04/11 09:30:26;;;;;;;26.60;25.10;;;12.80;52.40;;;;;;5074661;28;20446;-75
2022/04/11 09:33:04;;;;;;;28.20;26.60;;;12.90;51.50;;;;;;5075105;28;20474;-75
2022/04/11 09:35:32;;;;;;;25.97;24.40;;;12.90;50.50;;;;;;5075201;28;20458;-75
2022/04/11 09:38:12;;;;;;;26.27;24.77;;;13.10;49.00;;;;;;5075218;28;20533;-75
2022/04/11 09:40:44;;;;;;;26.33;24.67;;;13.20;48.30;;;;;;5074385;28;20933;-75
2022/04/11 09:43:13;;;;;;;26.37;24.87;;;13.20;47.30;;;;;;5075109;28;20478;-76
2022/04/11 09:45:44;;;;;;;25.50;24.00;;;13.20;47.90;;;;;;5075166;28;20453;-75
2022/04/11 09:48:16;;;;;;;26.00;24.30;;;13.30;48.30;;;;;;5074877;28;20483;-75
2022/04/11 09:50:43;;;;;;;25.57;23.87;;;13.50;48.30;;;;;;5074559;28;20504;-75
2022/04/11 09:53:13;;;;;;;25.70;24.20;;;13.60;47.70;;;;;;5074791;28;20489;-76
2022/04/11 09:55:40;;;;;;;26.07;24.50;;;13.70;47.20;;;;;;5075598;28;20453;-75
2022/04/11 09:58:08;;;;;;;25.57;24.07;;;13.70;46.70;;;;;;5075245;28;20481;-75
2022/04/11 10:00:36;;;;;;;26.47;24.83;;;13.80;47.10;;;;;;5074583;28;20462;-75
2022/04/11 10:03:05;;;;;;;25.43;23.80;;;13.90;47.10;;;;;;5074653;28;20497;-75
2022/04/11 10:05:33;;;;;;;25.47;23.97;;;14.00;47.10;;;;;;5074809;28;20454;-75
2022/04/11 10:08:01;;;;;;;26.23;24.63;;;14.00;46.90;;;;;;5074860;28;20453;-76
2022/04/11 10:10:30;;;;;;;25.33;23.90;;;14.10;46.40;;;;;;5074401;28;21027;-75
2022/04/11 10:12:58;;;;;;;26.00;24.40;;;14.10;45.70;;;;;;5075164;28;20839;-76
2022/04/11 10:15:25;;;;;;;25.90;24.40;;;14.20;46.00;;;;;;5073958;28;20454;-76
2022/04/11 10:17:54;;;;;;;25.70;24.00;;;14.20;45.80;;;;;;5074579;28;20457;-76
2022/04/11 10:20:29;;;;;;;25.53;24.13;;;14.10;45.80;;;;;;5073950;28;20794;-76
2022/04/11 10:22:58;;;;;;;26.67;25.07;;;14.30;46.00;;;;;;5074479;28;20478;-76
2022/04/11 10:25:27;;;;;;;25.90;24.40;;;14.30;45.90;;;;;;5074626;28;20451;-76
2022/04/11 10:28:18;;;;;;;24.77;23.27;;;14.10;46.20;;;;;;5074349;28;20537;-76
2022/04/11 10:30:47;;;;;;;25.27;23.67;;;14.10;46.20;;;;;;5074009;28;20534;-75
2022/04/11 10:33:14;;;;;;;26.17;24.47;;;14.40;46.50;;;;;;5074544;28;20474;-76
2022/04/11 10:35:42;;;;;;;26.83;24.47;;;14.60;46.40;;;;;;5074381;28;20454;-76
2022/04/11 10:38:11;;;;;;;25.30;23.70;;;14.80;46.20;;;;;;5074650;28;20451;-75
2022/04/11 10:40:39;;;;;;;27.07;25.37;;;14.90;45.70;;;;;;5073604;28;20555;-76
2022/04/11 10:43:18;;;;;;;25.00;23.50;;;15.00;45.20;;;;;;5074113;28;20563;-76
2022/04/11 10:45:56;;;;;;;29.70;28.20;;;15.00;45.10;;;;;;5074107;28;20457;-76
2022/04/11 10:49:05;;;;;;;25.70;24.20;;;14.90;45.00;;;;;;5073941;28;20455;-75
2022/04/11 10:51:32;;;;;;;25.53;24.03;;;14.30;45.30;;;;;;5073703;28;20462;-76
2022/04/11 10:54:17;;;;;;;25.13;23.73;;;14.40;45.50;;;;;;5073885;28;21051;-75
2022/04/11 10:56:55;;;;;;;25.43;23.93;;;14.50;44.90;;;;;;5073831;28;20955;-76
2022/04/11 10:59:30;;;;;;;26.10;24.50;;;14.60;45.40;;;;;;5072969;28;20967;-76
2022/04/11 11:02:00;;;;;;;25.20;23.80;;;14.70;46.10;;;;;;5073490;28;20473;-76
2022/04/11 11:04:30;;;;;;;25.67;24.07;;;14.90;45.20;;;;;;5073679;28;20470;-76
2022/04/11 11:07:29;;;;;;;24.90;23.40;;;14.80;45.10;;;;;;5073921;28;20451;-76
2022/04/11 11:09:58;;;;;;;26.37;24.77;;;14.90;44.80;;;;;;5072546;28;20465;-76
2022/04/11 11:12:26;;;;;;;25.17;23.67;;;15.00;44.60;;;;;;5073693;28;20458;-76
2022/04/11 11:14:55;;;;;;;25.37;23.87;;;15.10;44.30;;;;;;5073122;28;20446;-76
2022/04/11 11:17:22;;;;;;;25.90;24.40;;;15.20;44.20;;;;;;5073477;28;20508;-76
2022/04/11 11:20:08;;;;;;;26.53;24.93;;;15.30;44.20;;;;;;5072750;28;20478;-76
2022/04/11 11:22:56;;;;;;;24.40;23.00;;;15.40;44.20;;;;;;5073240;28;21017;-75
2022/04/11 11:25:23;;;;;;;25.10;23.70;;;15.40;43.50;;;;;;5073213;28;20462;-76
2022/04/11 11:27:50;;;;;;;26.07;24.47;;;15.40;44.10;;;;;;5073197;28;20451;-76
2022/04/11 11:30:18;;;;;;;26.40;24.70;;;15.50;43.80;;;;;;5072774;28;20443;-76
2022/04/11 11:32:46;;;;;;;25.90;24.30;;;15.60;43.60;;;;;;5073175;28;20458;-75
2022/04/11 11:35:13;;;;;;;26.03;24.53;;;15.70;43.20;;;;;;5072750;28;20555;-76
2022/04/11 11:37:40;;;;;;;26.80;24.70;;;15.80;43.20;;;;;;5072833;28;20459;-76
2022/04/11 11:40:10;;;;;;;25.47;23.97;;;15.80;42.40;;;;;;5072510;28;20542;-76
2022/04/11 11:42:38;;;;;;;26.03;24.53;;;15.80;42.50;;;;;;5072913;28;20489;-76
2022/04/11 11:45:07;;;;;;;26.77;25.10;;;15.70;42.00;;;;;;5072755;28;20940;-76
2022/04/11 11:47:35;;;;;;;25.70;24.20;;;15.70;41.40;;;;;;5072652;28;20479;-76
2022/04/11 11:50:05;;;;;;;25.70;24.17;;;15.80;42.20;;;;;;5072149;28;20530;-76
2022/04/11 11:52:32;;;;;;;26.07;24.47;;;16.00;41.90;;;;;;5072580;28;20887;-75
2022/04/11 11:54:59;;;;;;;26.00;24.50;;;16.20;41.70;;;;;;5072674;28;20934;-76
2022/04/11 11:57:28;;;;;;;27.13;25.43;;;16.10;41.50;;;;;;5072745;28;20460;-76
2022/04/11 11:59:59;;;;;;;26.13;24.60;;;15.80;41.10;;;;;;5071988;28;20530;-76
2022/04/11 12:05:18;;;;;;;28.57;26.97;;;16.10;41.50;;;;;;5072396;28;20434;-76
2022/04/11 12:07:45;;;;;;;24.60;23.20;;;16.30;41.30;;;;;;5072480;28;20537;-76
2022/04/11 12:10:12;;;;;;;26.77;25.13;;;16.40;41.00;;;;;;5071555;28;20460;-73
2022/04/11 12:12:39;;;;;;;25.50;23.90;;;16.40;40.70;;;;;;5072473;28;20477;-74
2022/04/11 12:15:08;;;;;;;25.40;24.00;;;16.40;40.70;;;;;;5072232;28;20476;-73
2022/04/11 12:17:36;;;;;;;25.50;24.03;;;16.70;40.30;;;;;;5072284;28;20526;-73
2022/04/11 12:20:12;;;;;;;25.93;24.43;;;16.80;40.50;;;;;;5071778;28;20459;-73
2022/04/11 12:22:42;;;;;;;25.40;23.90;;;16.80;39.90;;;;;;5072200;28;20577;-73
2022/04/11 12:25:26;;;;;;;26.10;24.50;;;16.90;39.30;;;;;;5072048;28;21023;-73
2022/04/11 12:28:15;;;;;;;26.70;25.10;;;16.90;38.80;;;;;;5072274;28;20455;-73
2022/04/11 12:30:45;;;;;;;25.90;24.40;;;16.80;39.50;;;;;;5071646;28;20545;-73
2022/04/11 12:33:13;;;;;;;28.67;26.90;;;17.00;39.50;;;;;;5072075;28;20489;-73
2022/04/11 12:35:39;;;;;;;27.57;25.77;;;17.20;39.60;;;;;;5071868;28;20458;-73
2022/04/11 12:38:10;;;;;;;27.13;25.43;;;17.20;39.70;;;;;;5071649;28;20453;-75
2022/04/11 12:40:44;;;;;;;27.30;25.70;;;17.30;39.50;;;;;;5071849;28;20460;-76
2022/04/11 12:43:12;;;;;;;28.03;26.43;;;17.50;39.10;;;;;;5071856;28;20838;-76